sensor_id;sensor_type;location;lat;lon;timestamp;pressure;altitude;pressure_sealevel;temperature;humidity
77685;BME280;66844;46.092;18.268;2023-12-28T00:00:14;100126.03;;;5.91;90.95
77685;BME280;66844;46.092;18.268;2023-12-28T00:00:46;100122.53;;;5.90;90.52
77685;BME280;66844;46.092;18.268;2023-12-28T00:01:18;100125.94;;;5.94;90.50
77685;BME280;66844;46.092;18.268;2023-12-28T00:01:50;100120.69;;;5.92;90.32
77685;BME280;66844;46.092;18.268;2023-12-28T00:02:22;100119.84;;;5.92;90.86
77685;BME280;66844;46.092;18.268;2023-12-28T00:02:54;100124.16;;;5.94;90.73
77685;BME280;66844;46.092;18.268;2023-12-28T00:03:26;100124.94;;;5.98;90.78
77685;BME280;66844;46.092;18.268;2023-12-28T00:03:58;100123.19;;;5.97;90.16
77685;BME280;66844;46.092;18.268;2023-12-28T00:04:30;100119.78;;;5.93;90.77
77685;BME280;66844;46.092;18.268;2023-12-28T00:05:02;100122.44;;;5.93;91.25
77685;BME280;66844;46.092;18.268;2023-12-28T00:05:35;100118.03;;;5.92;91.35
77685;BME280;66844;46.092;18.268;2023-12-28T00:06:07;100125.16;;;5.90;91.44
77685;BME280;66844;46.092;18.268;2023-12-28T00:06:39;100117.34;;;5.87;91.35
77685;BME280;66844;46.092;18.268;2023-12-28T00:07:12;100119.91;;;5.89;91.10
77685;BME280;66844;46.092;18.268;2023-12-28T00:07:44;100124.31;;;5.88;91.00
77685;BME280;66844;46.092;18.268;2023-12-28T00:08:16;100124.38;;;5.87;91.24
77685;BME280;66844;46.092;18.268;2023-12-28T00:08:48;100119.97;;;5.87;91.57
77685;BME280;66844;46.092;18.268;2023-12-28T00:09:34;100116.53;;;5.83;91.51
77685;BME280;66844;46.092;18.268;2023-12-28T00:10:07;100122.69;;;5.82;91.63
77685;BME280;66844;46.092;18.268;2023-12-28T00:10:39;100119.19;;;5.82;91.89
77685;BME280;66844;46.092;18.268;2023-12-28T00:11:11;100123.59;;;5.81;91.56
77685;BME280;66844;46.092;18.268;2023-12-28T00:11:43;100115.78;;;5.78;92.00
77685;BME280;66844;46.092;18.268;2023-12-28T00:12:15;100120.19;;;5.78;91.41
77685;BME280;66844;46.092;18.268;2023-12-28T00:12:47;100119.31;;;5.77;92.00
77685;BME280;66844;46.092;18.268;2023-12-28T00:13:19;100119.31;;;5.77;92.05
77685;BME280;66844;46.092;18.268;2023-12-28T00:13:51;100113.97;;;5.80;91.65
77685;BME280;66844;46.092;18.268;2023-12-28T00:14:23;100118.28;;;5.83;91.50
77685;BME280;66844;46.092;18.268;2023-12-28T00:14:55;100119.97;;;5.85;91.41
77685;BME280;66844;46.092;18.268;2023-12-28T00:15:27;100120.84;;;5.88;91.24
77685;BME280;66844;46.092;18.268;2023-12-28T00:15:59;100119.91;;;5.89;91.33
77685;BME280;66844;46.092;18.268;2023-12-28T00:16:31;100110.22;;;5.89;91.42
77685;BME280;66844;46.092;18.268;2023-12-28T00:17:09;100118.03;;;5.92;91.18
77685;BME280;66844;46.092;18.268;2023-12-28T00:17:41;100119.78;;;5.93;90.49
77685;BME280;66844;46.092;18.268;2023-12-28T00:18:14;100123.28;;;5.94;90.93
77685;BME280;66844;46.092;18.268;2023-12-28T00:18:46;100118.88;;;5.94;90.59
77685;BME280;66844;46.092;18.268;2023-12-28T00:19:18;100125.91;;;5.95;90.84
77685;BME280;66844;46.092;18.268;2023-12-28T00:19:53;100119.69;;;5.96;90.27
77685;BME280;66844;46.092;18.268;2023-12-28T00:20:25;100119.66;;;5.98;90.00
77685;BME280;66844;46.092;18.268;2023-12-28T00:20:57;100119.66;;;5.98;90.45
77685;BME280;66844;46.092;18.268;2023-12-28T00:21:30;100119.66;;;5.98;90.19
77685;BME280;66844;46.092;18.268;2023-12-28T00:22:02;100116.94;;;6.01;90.38
77685;BME280;66844;46.092;18.268;2023-12-28T00:22:34;100114.28;;;6.01;89.70
77685;BME280;66844;46.092;18.268;2023-12-28T00:23:08;100116.94;;;6.01;90.17
77685;BME280;66844;46.092;18.268;2023-12-28T00:23:40;100119.63;;;5.99;89.86
77685;BME280;66844;46.092;18.268;2023-12-28T00:24:15;100119.56;;;6.01;89.98
77685;BME280;66844;46.092;18.268;2023-12-28T00:24:47;100118.69;;;6.00;90.02
77685;BME280;66844;46.092;18.268;2023-12-28T00:25:19;100122.28;;;5.99;89.77
77685;BME280;66844;46.092;18.268;2023-12-28T00:25:50;100126.63;;;6.00;90.12
77685;BME280;66844;46.092;18.268;2023-12-28T00:26:23;100123.16;;;5.98;90.38
77685;BME280;66844;46.092;18.268;2023-12-28T00:26:55;100117.88;;;5.98;89.90
77685;BME280;66844;46.092;18.268;2023-12-28T00:27:26;100120.53;;;5.98;89.93
77685;BME280;66844;46.092;18.268;2023-12-28T00:27:58;100116.16;;;5.97;90.03
77685;BME280;66844;46.092;18.268;2023-12-28T00:28:31;100118.00;;;5.95;90.67
77685;BME280;66844;46.092;18.268;2023-12-28T00:29:03;100114.47;;;5.95;90.35
77685;BME280;66844;46.092;18.268;2023-12-28T00:29:35;100118.81;;;5.96;90.29
77685;BME280;66844;46.092;18.268;2023-12-28T00:30:10;100113.50;;;5.97;90.38
77685;BME280;66844;46.092;18.268;2023-12-28T00:30:42;100110.88;;;5.97;90.01
77685;BME280;66844;46.092;18.268;2023-12-28T00:31:14;100114.38;;;5.98;90.09
77685;BME280;66844;46.092;18.268;2023-12-28T00:31:46;100110.00;;;5.97;89.86
77685;BME280;66844;46.092;18.268;2023-12-28T00:32:19;100115.28;;;5.97;90.69
77685;BME280;66844;46.092;18.268;2023-12-28T00:32:50;100117.88;;;5.98;89.82
77685;BME280;66844;46.092;18.268;2023-12-28T00:33:23;100114.38;;;5.98;90.48
77685;BME280;66844;46.092;18.268;2023-12-28T00:33:55;100110.91;;;5.96;90.19
77685;BME280;66844;46.092;18.268;2023-12-28T00:34:27;100110.00;;;5.97;90.06
77685;BME280;66844;46.092;18.268;2023-12-28T00:34:59;100119.66;;;5.98;90.47
77685;BME280;66844;46.092;18.268;2023-12-28T00:35:31;100113.47;;;5.99;89.91
77685;BME280;66844;46.092;18.268;2023-12-28T00:36:03;100107.44;;;5.95;90.72
77685;BME280;66844;46.092;18.268;2023-12-28T00:36:35;100117.91;;;5.97;90.38
77685;BME280;66844;46.092;18.268;2023-12-28T00:37:07;100117.06;;;5.96;89.90
77685;BME280;66844;46.092;18.268;2023-12-28T00:37:39;100114.47;;;5.95;90.22
77685;BME280;66844;46.092;18.268;2023-12-28T00:38:12;100114.41;;;5.96;90.15
77685;BME280;66844;46.092;18.268;2023-12-28T00:38:44;100112.72;;;5.95;90.40
77685;BME280;66844;46.092;18.268;2023-12-28T00:39:16;100108.31;;;5.94;90.03
77685;BME280;66844;46.092;18.268;2023-12-28T00:39:48;100114.50;;;5.93;90.40
77685;BME280;66844;46.092;18.268;2023-12-28T00:40:21;100110.09;;;5.94;90.52
77685;BME280;66844;46.092;18.268;2023-12-28T00:40:53;100110.13;;;5.92;90.33
77685;BME280;66844;46.092;18.268;2023-12-28T00:41:25;100113.63;;;5.93;90.33
77685;BME280;66844;46.092;18.268;2023-12-28T00:41:57;100111.94;;;5.92;90.42
77685;BME280;66844;46.092;18.268;2023-12-28T00:42:29;100109.31;;;5.90;90.86
77685;BME280;66844;46.092;18.268;2023-12-28T00:43:01;100114.59;;;5.90;90.99
77685;BME280;66844;46.092;18.268;2023-12-28T00:43:33;100108.53;;;5.85;91.36
77685;BME280;66844;46.092;18.268;2023-12-28T00:44:05;100111.25;;;5.83;90.48
77685;BME280;66844;46.092;18.268;2023-12-28T00:44:41;100112.13;;;5.84;90.87
77685;BME280;66844;46.092;18.268;2023-12-28T00:45:13;100109.59;;;5.79;91.19
77685;BME280;66844;46.092;18.268;2023-12-28T00:45:45;100110.50;;;5.78;91.34
77685;BME280;66844;46.092;18.268;2023-12-28T00:46:17;100105.25;;;5.77;91.61
77685;BME280;66844;46.092;18.268;2023-12-28T00:46:49;100113.22;;;5.75;91.75
77685;BME280;66844;46.092;18.268;2023-12-28T00:47:21;100111.50;;;5.74;91.96
77685;BME280;66844;46.092;18.268;2023-12-28T00:47:53;100114.19;;;5.73;91.18
77685;BME280;66844;46.092;18.268;2023-12-28T00:48:28;100109.81;;;5.72;91.40
77685;BME280;66844;46.092;18.268;2023-12-28T00:49:00;100110.78;;;5.69;92.09
77685;BME280;66844;46.092;18.268;2023-12-28T00:49:32;100116.19;;;5.63;91.83
77685;BME280;66844;46.092;18.268;2023-12-28T00:50:04;100112.69;;;5.63;92.26
77685;BME280;66844;46.092;18.268;2023-12-28T00:50:36;100109.19;;;5.62;91.81
77685;BME280;66844;46.092;18.268;2023-12-28T00:51:08;100110.03;;;5.64;92.50
77685;BME280;66844;46.092;18.268;2023-12-28T00:51:40;100114.47;;;5.62;92.50
77685;BME280;66844;46.092;18.268;2023-12-28T00:52:12;100113.78;;;5.56;92.65
77685;BME280;66844;46.092;18.268;2023-12-28T00:52:44;100111.13;;;5.56;92.22
77685;BME280;66844;46.092;18.268;2023-12-28T00:53:16;100111.03;;;5.59;92.57
77685;BME280;66844;46.092;18.268;2023-12-28T00:53:48;100110.22;;;5.57;92.70
77685;BME280;66844;46.092;18.268;2023-12-28T00:54:20;100115.63;;;5.52;92.88
77685;BME280;66844;46.092;18.268;2023-12-28T00:54:52;100110.47;;;5.48;92.46
77685;BME280;66844;46.092;18.268;2023-12-28T00:55:24;100113.16;;;5.46;92.89
77685;BME280;66844;46.092;18.268;2023-12-28T00:55:56;100117.59;;;5.44;92.73
77685;BME280;66844;46.092;18.268;2023-12-28T00:56:28;100114.03;;;5.47;93.45
77685;BME280;66844;46.092;18.268;2023-12-28T00:57:00;100112.25;;;5.47;93.65
77685;BME280;66844;46.092;18.268;2023-12-28T00:57:32;100114.88;;;5.47;93.10
77685;BME280;66844;46.092;18.268;2023-12-28T00:58:04;100114.03;;;5.47;93.07
77685;BME280;66844;46.092;18.268;2023-12-28T00:58:39;100110.63;;;5.43;93.17
77685;BME280;66844;46.092;18.268;2023-12-28T00:59:12;100108.13;;;5.37;93.48
77685;BME280;66844;46.092;18.268;2023-12-28T00:59:45;100114.28;;;5.37;93.41
77685;BME280;66844;46.092;18.268;2023-12-28T01:00:17;100123.94;;;5.37;93.27
77685;BME280;66844;46.092;18.268;2023-12-28T01:00:49;100111.63;;;5.37;93.78
77685;BME280;66844;46.092;18.268;2023-12-28T01:01:21;100119.47;;;5.41;93.48
77685;BME280;66844;46.092;18.268;2023-12-28T01:01:53;100119.53;;;5.39;93.72
77685;BME280;66844;46.092;18.268;2023-12-28T01:02:25;100118.66;;;5.38;94.22
77685;BME280;66844;46.092;18.268;2023-12-28T01:02:57;100123.88;;;5.40;94.03
77685;BME280;66844;46.092;18.268;2023-12-28T01:03:29;100116.00;;;5.38;93.46
77685;BME280;66844;46.092;18.268;2023-12-28T01:04:01;100114.28;;;5.36;94.32
77685;BME280;66844;46.092;18.268;2023-12-28T01:04:33;100117.75;;;5.40;93.57
77685;BME280;66844;46.092;18.268;2023-12-28T01:05:05;100123.94;;;5.38;94.37
77685;BME280;66844;46.092;18.268;2023-12-28T01:05:37;100120.41;;;5.40;93.93
77685;BME280;66844;46.092;18.268;2023-12-28T01:06:09;100122.22;;;5.36;93.87
77685;BME280;66844;46.092;18.268;2023-12-28T01:06:41;100115.16;;;5.36;93.62
77685;BME280;66844;46.092;18.268;2023-12-28T01:07:13;100116.09;;;5.35;93.56
77685;BME280;66844;46.092;18.268;2023-12-28T01:07:45;100123.06;;;5.38;93.43
77685;BME280;66844;46.092;18.268;2023-12-28T01:08:17;100119.53;;;5.39;93.59
77685;BME280;66844;46.092;18.268;2023-12-28T01:08:49;100121.19;;;5.42;93.84
77685;BME280;66844;46.092;18.268;2023-12-28T01:09:21;100123.03;;;5.40;93.94
77685;BME280;66844;46.092;18.268;2023-12-28T01:09:53;100119.63;;;5.34;94.39
77685;BME280;66844;46.092;18.268;2023-12-28T01:10:25;100115.16;;;5.36;94.17
77685;BME280;66844;46.092;18.268;2023-12-28T01:10:57;100116.91;;;5.37;94.23
77685;BME280;66844;46.092;18.268;2023-12-28T01:11:29;100123.03;;;5.40;93.50
77685;BME280;66844;46.092;18.268;2023-12-28T01:12:01;100120.41;;;5.40;94.11
77685;BME280;66844;46.092;18.268;2023-12-28T01:12:33;100119.44;;;5.42;94.13
77685;BME280;66844;46.092;18.268;2023-12-28T01:13:05;100121.19;;;5.42;93.75
77685;BME280;66844;46.092;18.268;2023-12-28T01:13:37;100116.72;;;5.44;94.15
77685;BME280;66844;46.092;18.268;2023-12-28T01:14:12;100110.66;;;5.42;93.55
77685;BME280;66844;46.092;18.268;2023-12-28T01:14:44;100114.16;;;5.42;93.67
77685;BME280;66844;46.092;18.268;2023-12-28T01:15:17;100117.66;;;5.43;93.71
77685;BME280;66844;46.092;18.268;2023-12-28T01:15:49;100118.53;;;5.43;93.40
77685;BME280;66844;46.092;18.268;2023-12-28T01:16:22;100115.06;;;5.41;93.61
77685;BME280;66844;46.092;18.268;2023-12-28T01:16:54;100117.78;;;5.38;93.54
77685;BME280;66844;46.092;18.268;2023-12-28T01:17:26;100122.16;;;5.39;93.48
77685;BME280;66844;46.092;18.268;2023-12-28T01:17:57;100115.16;;;5.38;93.45
77685;BME280;66844;46.092;18.268;2023-12-28T01:18:30;100119.63;;;5.34;93.58
77685;BME280;66844;46.092;18.268;2023-12-28T01:19:02;100117.91;;;5.33;94.01
77685;BME280;66844;46.092;18.268;2023-12-28T01:19:34;100119.72;;;5.31;94.57
77685;BME280;66844;46.092;18.268;2023-12-28T01:20:07;100117.09;;;5.31;94.10
77685;BME280;66844;46.092;18.268;2023-12-28T01:20:39;100118.75;;;5.34;94.63
77685;BME280;66844;46.092;18.268;2023-12-28T01:21:11;100120.53;;;5.33;94.01
77685;BME280;66844;46.092;18.268;2023-12-28T01:21:43;100114.34;;;5.34;94.37
77685;BME280;66844;46.092;18.268;2023-12-28T01:22:15;100120.53;;;5.33;94.40
77685;BME280;66844;46.092;18.268;2023-12-28T01:22:47;100119.66;;;5.33;94.00
77685;BME280;66844;46.092;18.268;2023-12-28T01:23:21;100118.00;;;5.29;94.66
77685;BME280;66844;46.092;18.268;2023-12-28T01:23:53;100113.59;;;5.29;94.39
77685;BME280;66844;46.092;18.268;2023-12-28T01:24:26;100113.56;;;5.31;94.69
77685;BME280;66844;46.092;18.268;2023-12-28T01:24:58;100118.84;;;5.31;94.57
77685;BME280;66844;46.092;18.268;2023-12-28T01:25:30;100113.59;;;5.29;94.00
77685;BME280;66844;46.092;18.268;2023-12-28T01:26:02;100123.22;;;5.32;94.26
77685;BME280;66844;46.092;18.268;2023-12-28T01:26:34;100124.03;;;5.34;94.67
77685;BME280;66844;46.092;18.268;2023-12-28T01:27:06;100124.03;;;5.34;94.48
77685;BME280;66844;46.092;18.268;2023-12-28T01:27:38;100127.66;;;5.30;94.11
77685;BME280;66844;46.092;18.268;2023-12-28T01:28:10;100120.72;;;5.27;94.10
77685;BME280;66844;46.092;18.268;2023-12-28T01:28:42;100125.03;;;5.30;94.09
77685;BME280;66844;46.092;18.268;2023-12-28T01:29:14;100122.44;;;5.28;94.25
77685;BME280;66844;46.092;18.268;2023-12-28T01:29:46;100118.97;;;5.26;94.30
77685;BME280;66844;46.092;18.268;2023-12-28T01:30:18;100124.22;;;5.28;94.76
77685;BME280;66844;46.092;18.268;2023-12-28T01:30:50;100118.09;;;5.26;94.43
77685;BME280;66844;46.092;18.268;2023-12-28T01:31:22;100117.28;;;5.24;94.35
77685;BME280;66844;46.092;18.268;2023-12-28T01:31:55;100122.56;;;5.24;94.46
77685;BME280;66844;46.092;18.268;2023-12-28T01:32:27;100119.91;;;5.24;94.64
77685;BME280;66844;46.092;18.268;2023-12-28T01:32:58;100119.84;;;5.27;94.94
77685;BME280;66844;46.092;18.268;2023-12-28T01:33:30;100124.28;;;5.25;94.54
77685;BME280;66844;46.092;18.268;2023-12-28T01:34:02;100120.84;;;5.21;95.08
77685;BME280;66844;46.092;18.268;2023-12-28T01:34:35;100123.47;;;5.21;95.28
77685;BME280;66844;46.092;18.268;2023-12-28T01:35:07;100123.56;;;5.18;95.22
77685;BME280;66844;46.092;18.268;2023-12-28T01:35:40;100121.00;;;5.15;94.91
77685;BME280;66844;46.092;18.268;2023-12-28T01:36:21;100108.81;;;5.11;95.46
77685;BME280;66844;46.092;18.268;2023-12-28T01:36:53;100114.00;;;5.14;95.49
77685;BME280;66844;46.092;18.268;2023-12-28T01:37:25;100116.59;;;5.17;94.99
77685;BME280;66844;46.092;18.268;2023-12-28T01:37:57;100115.66;;;5.18;95.61
77685;BME280;66844;46.092;18.268;2023-12-28T01:38:32;100117.41;;;5.19;95.54
77685;BME280;66844;46.092;18.268;2023-12-28T01:39:04;100122.66;;;5.19;95.43
77685;BME280;66844;46.092;18.268;2023-12-28T01:39:36;100119.16;;;5.19;94.89
77685;BME280;66844;46.092;18.268;2023-12-28T01:40:08;100121.81;;;5.19;95.00
77685;BME280;66844;46.092;18.268;2023-12-28T01:40:45;100121.84;;;5.17;95.32
77685;BME280;66844;46.092;18.268;2023-12-28T01:41:17;100114.97;;;5.10;95.88
77685;BME280;66844;46.092;18.268;2023-12-28T01:41:49;100120.25;;;5.10;95.26
77685;BME280;66844;46.092;18.268;2023-12-28T01:42:21;100130.00;;;5.08;95.17
77685;BME280;66844;46.092;18.268;2023-12-28T01:42:53;100122.06;;;5.08;95.64
77685;BME280;66844;46.092;18.268;2023-12-28T01:43:25;100126.47;;;5.09;96.13
77685;BME280;66844;46.092;18.268;2023-12-28T01:43:57;100122.88;;;5.10;95.43
77685;BME280;66844;46.092;18.268;2023-12-28T01:44:29;100123.03;;;5.06;95.91
77685;BME280;66844;46.092;18.268;2023-12-28T01:45:01;100124.81;;;5.05;96.05
77685;BME280;66844;46.092;18.268;2023-12-28T01:45:33;100123.94;;;5.05;95.36
77685;BME280;66844;46.092;18.268;2023-12-28T01:46:06;100120.44;;;5.03;95.58
77685;BME280;66844;46.092;18.268;2023-12-28T01:46:40;100124.81;;;5.04;96.15
77685;BME280;66844;46.092;18.268;2023-12-28T01:47:12;100126.66;;;5.02;96.35
77685;BME280;66844;46.092;18.268;2023-12-28T01:47:44;100134.63;;;4.99;95.78
77685;BME280;66844;46.092;18.268;2023-12-28T01:48:18;100121.59;;;4.93;95.90
77685;BME280;66844;46.092;18.268;2023-12-28T01:48:50;100124.22;;;4.93;96.17
77685;BME280;66844;46.092;18.268;2023-12-28T01:49:23;100125.19;;;4.90;96.22
77685;BME280;66844;46.092;18.268;2023-12-28T01:49:56;100118.25;;;4.86;96.96
77685;BME280;66844;46.092;18.268;2023-12-28T01:50:30;100122.56;;;4.88;96.68
77685;BME280;66844;46.092;18.268;2023-12-28T01:51:03;100126.22;;;4.83;96.58
77685;BME280;66844;46.092;18.268;2023-12-28T01:51:35;100120.03;;;4.84;96.95
77685;BME280;66844;46.092;18.268;2023-12-28T01:52:08;100128.81;;;4.84;97.21
77685;BME280;66844;46.092;18.268;2023-12-28T01:52:40;100124.41;;;4.85;97.30
77685;BME280;66844;46.092;18.268;2023-12-28T01:53:14;100127.91;;;4.85;97.37
77685;BME280;66844;46.092;18.268;2023-12-28T01:53:47;100127.84;;;4.88;97.25
77685;BME280;66844;46.092;18.268;2023-12-28T01:54:21;100119.13;;;4.85;97.52
77685;BME280;66844;46.092;18.268;2023-12-28T01:54:53;100125.28;;;4.85;97.56
77685;BME280;66844;46.092;18.268;2023-12-28T01:55:26;100119.19;;;4.83;97.16
77685;BME280;66844;46.092;18.268;2023-12-28T01:55:59;100120.03;;;4.84;97.13
77685;BME280;66844;46.092;18.268;2023-12-28T01:56:34;100123.50;;;4.87;97.18
77685;BME280;66844;46.092;18.268;2023-12-28T01:57:06;100127.81;;;4.90;97.26
77685;BME280;66844;46.092;18.268;2023-12-28T01:57:39;100112.97;;;4.86;96.95
77685;BME280;66844;46.092;18.268;2023-12-28T01:58:11;100116.47;;;4.86;97.18
77685;BME280;66844;46.092;18.268;2023-12-28T01:58:44;100115.59;;;4.87;97.51
77685;BME280;66844;46.092;18.268;2023-12-28T01:59:17;100115.59;;;4.87;97.44
77685;BME280;66844;46.092;18.268;2023-12-28T01:59:51;100115.59;;;4.87;96.86
77685;BME280;66844;46.092;18.268;2023-12-28T02:00:24;100115.63;;;4.84;96.96
77685;BME280;66844;46.092;18.268;2023-12-28T02:00:56;100115.59;;;4.86;97.21
77685;BME280;66844;46.092;18.268;2023-12-28T02:01:29;100107.69;;;4.87;97.46
77685;BME280;66844;46.092;18.268;2023-12-28T02:02:01;100108.66;;;4.83;97.37
77685;BME280;66844;46.092;18.268;2023-12-28T02:02:34;100108.69;;;4.80;97.45
77685;BME280;66844;46.092;18.268;2023-12-28T02:03:06;100108.69;;;4.80;97.25
77685;BME280;66844;46.092;18.268;2023-12-28T02:03:39;100110.53;;;4.78;97.75
77685;BME280;66844;46.092;18.268;2023-12-28T02:04:12;100110.53;;;4.77;97.55
77685;BME280;66844;46.092;18.268;2023-12-28T02:04:45;100107.03;;;4.76;97.41
77685;BME280;66844;46.092;18.268;2023-12-28T02:05:17;100105.28;;;4.77;97.67
77685;BME280;66844;46.092;18.268;2023-12-28T02:05:51;100100.06;;;4.75;97.48
77685;BME280;66844;46.092;18.268;2023-12-28T02:06:24;100108.88;;;4.74;97.95
77685;BME280;66844;46.092;18.268;2023-12-28T02:06:59;100108.88;;;4.73;98.05
77685;BME280;66844;46.092;18.268;2023-12-28T02:07:32;100107.31;;;4.66;98.18
77685;BME280;66844;46.092;18.268;2023-12-28T02:08:05;100105.59;;;4.65;98.24
77685;BME280;66844;46.092;18.268;2023-12-28T02:08:37;100099.56;;;4.60;98.24
77685;BME280;66844;46.092;18.268;2023-12-28T02:09:11;100104.75;;;4.63;98.41
77685;BME280;66844;46.092;18.268;2023-12-28T02:09:44;100098.59;;;4.64;98.17
77685;BME280;66844;46.092;18.268;2023-12-28T02:10:16;100093.31;;;4.64;98.41
77685;BME280;66844;46.092;18.268;2023-12-28T02:10:48;100099.53;;;4.61;98.39
77685;BME280;66844;46.092;18.268;2023-12-28T02:11:20;100098.69;;;4.59;98.67
77685;BME280;66844;46.092;18.268;2023-12-28T02:11:53;100092.59;;;4.57;98.81
77685;BME280;66844;46.092;18.268;2023-12-28T02:12:26;100096.09;;;4.58;98.48
77685;BME280;66844;46.092;18.268;2023-12-28T02:12:58;100090.00;;;4.54;98.98
77685;BME280;66844;46.092;18.268;2023-12-28T02:13:30;100094.38;;;4.55;98.43
77685;BME280;66844;46.092;18.268;2023-12-28T02:14:02;100085.69;;;4.52;99.07
77685;BME280;66844;46.092;18.268;2023-12-28T02:14:34;100086.59;;;4.51;99.28
77685;BME280;66844;46.092;18.268;2023-12-28T02:15:07;100089.19;;;4.52;98.96
77685;BME280;66844;46.092;18.268;2023-12-28T02:15:39;100086.63;;;4.49;98.79
77685;BME280;66844;46.092;18.268;2023-12-28T02:16:22;100091.91;;;4.49;98.84
77685;BME280;66844;46.092;18.268;2023-12-28T02:17:04;100084.09;;;4.46;99.51
77685;BME280;66844;46.092;18.268;2023-12-28T02:17:47;100084.97;;;4.47;99.02
77685;BME280;66844;46.092;18.268;2023-12-28T02:18:28;100084.09;;;4.45;99.57
77685;BME280;66844;46.092;18.268;2023-12-28T02:19:25;100078.94;;;4.40;99.79
77685;BME280;66844;46.092;18.268;2023-12-28T02:20:04;100076.38;;;4.37;99.61
77685;BME280;66844;46.092;18.268;2023-12-28T02:20:39;100082.53;;;4.36;100.00
77685;BME280;66844;46.092;18.268;2023-12-28T02:21:13;100079.97;;;4.33;99.49
77685;BME280;66844;46.092;18.268;2023-12-28T02:21:47;100076.53;;;4.31;100.00
77685;BME280;66844;46.092;18.268;2023-12-28T02:22:21;100078.25;;;4.32;100.00
77685;BME280;66844;46.092;18.268;2023-12-28T02:22:56;100080.94;;;4.30;100.00
77685;BME280;66844;46.092;18.268;2023-12-28T02:23:28;100074.81;;;4.28;100.00
77685;BME280;66844;46.092;18.268;2023-12-28T02:24:00;100076.59;;;4.28;100.00
77685;BME280;66844;46.092;18.268;2023-12-28T02:24:32;100078.38;;;4.27;100.00
77685;BME280;66844;46.092;18.268;2023-12-28T02:25:10;100070.56;;;4.23;100.00
77685;BME280;66844;46.092;18.268;2023-12-28T02:25:45;100074.91;;;4.25;100.00
77685;BME280;66844;46.092;18.268;2023-12-28T02:26:17;100070.50;;;4.24;100.00
77685;BME280;66844;46.092;18.268;2023-12-28T02:26:50;100066.19;;;4.22;100.00
77685;BME280;66844;46.092;18.268;2023-12-28T02:27:22;100075.00;;;4.21;100.00
77685;BME280;66844;46.092;18.268;2023-12-28T02:28:03;100067.25;;;4.15;100.00
77685;BME280;66844;46.092;18.268;2023-12-28T02:28:35;100070.75;;;4.14;100.00
77685;BME280;66844;46.092;18.268;2023-12-28T02:29:07;100064.63;;;4.13;100.00
77685;BME280;66844;46.092;18.268;2023-12-28T02:29:40;100067.25;;;4.15;100.00
77685;BME280;66844;46.092;18.268;2023-12-28T02:30:18;100069.06;;;4.13;100.00
77685;BME280;66844;46.092;18.268;2023-12-28T02:30:54;100056.72;;;4.13;100.00
77685;BME280;66844;46.092;18.268;2023-12-28T02:31:32;100064.53;;;4.18;100.00
77685;BME280;66844;46.092;18.268;2023-12-28T02:32:09;100067.09;;;4.21;100.00
77685;BME280;66844;46.092;18.268;2023-12-28T02:33:43;100051.19;;;4.25;100.00
77685;BME280;66844;46.092;18.268;2023-12-28T02:34:33;100056.34;;;4.31;100.00
77685;BME280;66844;46.092;18.268;2023-12-28T02:36:04;100051.97;;;4.29;100.00
77685;BME280;66844;46.092;18.268;2023-12-28T02:36:41;100057.22;;;4.30;100.00
77685;BME280;66844;46.092;18.268;2023-12-28T02:37:17;100053.72;;;4.30;100.00
77685;BME280;66844;46.092;18.268;2023-12-28T02:37:52;100052.94;;;4.26;100.00
77685;BME280;66844;46.092;18.268;2023-12-28T02:38:29;100053.72;;;4.30;100.00
77685;BME280;66844;46.092;18.268;2023-12-28T02:39:03;100052.94;;;4.26;100.00
77685;BME280;66844;46.092;18.268;2023-12-28T02:39:38;100053.09;;;4.20;100.00
77685;BME280;66844;46.092;18.268;2023-12-28T02:40:14;100054.84;;;4.20;100.00
77685;BME280;66844;46.092;18.268;2023-12-28T02:40:48;100044.34;;;4.18;100.00
77685;BME280;66844;46.092;18.268;2023-12-28T02:41:22;100045.19;;;4.20;100.00
77685;BME280;66844;46.092;18.268;2023-12-28T02:41:55;100056.53;;;4.22;100.00
77685;BME280;66844;46.092;18.268;2023-12-28T02:42:27;100047.81;;;4.20;100.00
77685;BME280;66844;46.092;18.268;2023-12-28T02:42:59;100048.72;;;4.19;100.00
77685;BME280;66844;46.092;18.268;2023-12-28T02:43:31;100052.22;;;4.20;100.00
77685;BME280;66844;46.092;18.268;2023-12-28T02:44:05;100063.66;;;4.17;100.00
77685;BME280;66844;46.092;18.268;2023-12-28T02:44:37;100050.56;;;4.14;100.00
77685;BME280;66844;46.092;18.268;2023-12-28T02:45:09;100060.22;;;4.15;100.00
77685;BME280;66844;46.092;18.268;2023-12-28T02:45:41;100054.06;;;4.16;100.00
77685;BME280;66844;46.092;18.268;2023-12-28T02:46:13;100053.19;;;4.16;100.00
77685;BME280;66844;46.092;18.268;2023-12-28T02:46:45;100049.69;;;4.15;100.00
77685;BME280;66844;46.092;18.268;2023-12-28T02:47:17;100050.72;;;4.08;100.00
77685;BME280;66844;46.092;18.268;2023-12-28T02:47:49;100047.28;;;4.05;100.00
77685;BME280;66844;46.092;18.268;2023-12-28T02:48:21;100049.06;;;4.04;100.00
77685;BME280;66844;46.092;18.268;2023-12-28T02:48:53;100050.97;;;3.98;100.00
77685;BME280;66844;46.092;18.268;2023-12-28T02:49:29;100046.56;;;3.98;100.00
77685;BME280;66844;46.092;18.268;2023-12-28T02:50:01;100050.91;;;3.99;100.00
77685;BME280;66844;46.092;18.268;2023-12-28T02:50:34;100055.28;;;4.00;100.00
77685;BME280;66844;46.092;18.268;2023-12-28T02:51:06;100053.53;;;3.99;100.00
77685;BME280;66844;46.092;18.268;2023-12-28T02:51:38;100050.97;;;3.98;100.00
77685;BME280;66844;46.092;18.268;2023-12-28T02:52:10;100050.91;;;3.99;100.00
77685;BME280;66844;46.092;18.268;2023-12-28T02:52:42;100053.53;;;4.01;100.00
77685;BME280;66844;46.092;18.268;2023-12-28T02:53:14;100051.69;;;4.04;100.00
77685;BME280;66844;46.092;18.268;2023-12-28T02:53:46;100046.53;;;4.00;100.00